Time;durP1;ratioP1;P1;durP2;ratioP2;P2;SDS_P1;SDS_P2;PMS_P1;PMS_P2;Temp;Humidity;BMP_temperature;BMP_pressure;BME280_temperature;BME280_humidity;BME280_pressure;Samples;Min_cycle;Max_cycle;Signal;HPM_P1;HPM_P2
2022/01/28 00:00:27;;;;;;;64.80;58.33;;;;;;;-4.63;100.00;101446.25;5112408;28;20472;-80
2022/01/28 00:03:01;;;;;;;64.47;57.65;;;;;;;-4.70;100.00;101442.31;5111390;27;20039;-80
2022/01/28 00:05:28;;;;;;;69.93;63.35;;;;;;;-4.73;100.00;101437.31;5112287;27;20040;-81
2022/01/28 00:07:55;;;;;;;65.85;59.67;;;;;;;-4.66;100.00;101438.66;5108204;27;20077;-80
2022/01/28 00:10:24;;;;;;;72.68;65.55;;;;;;;-4.49;100.00;101442.81;5116523;27;20047;-80
2022/01/28 00:13:13;;;;;;;60.75;54.60;;;;;;;-4.82;100.00;101424.06;5114721;28;20105;-80
2022/01/28 00:16:08;;;;;;;62.60;56.13;;;;;;;-4.53;100.00;101430.97;5105133;28;20044;-81
2022/01/28 00:38:11;;;;;;;61.42;55.25;;;;;;;-5.24;100.00;101389.34;5090855;28;20131;-81
2022/01/28 00:40:39;;;;;;;85.40;76.32;;;;;;;-5.03;100.00;101380.34;5110505;28;20044;-80
2022/01/28 00:43:06;;;;;;;70.43;62.85;;;;;;;-4.90;100.00;101383.91;5113720;28;20548;-80
2022/01/28 00:45:33;;;;;;;76.00;63.80;;;;;;;-4.95;100.00;101374.72;5114880;28;20109;-80
2022/01/28 00:48:05;;;;;;;76.75;65.40;;;;;;;-4.80;100.00;101384.19;5095580;28;20465;-82
2022/01/28 00:50:34;;;;;;;74.40;63.03;;;;;;;-4.96;100.00;101378.22;5117826;28;20044;-82
2022/01/28 00:53:01;;;;;;;77.63;65.63;;;;;;;-5.06;100.00;101365.78;5116766;28;20047;-79
2022/01/28 00:55:27;;;;;;;74.80;62.65;;;;;;;-4.75;100.00;101366.59;5117274;28;20116;-81
2022/01/28 00:58:03;;;;;;;70.65;59.28;;;;;;;-4.71;100.00;101369.84;5106635;28;20044;-81
2022/01/28 01:00:30;;;;;;;70.38;63.28;;;;;;;-4.53;100.00;101365.31;5103118;28;20052;-80
2022/01/28 01:02:59;;;;;;;67.10;59.90;;;;;;;-4.64;100.00;101351.22;5111569;28;20101;-81
2022/01/28 01:05:26;;;;;;;64.18;57.28;;;;;;;-4.81;100.00;101337.59;5110428;28;20059;-81
2022/01/28 01:07:54;;;;;;;69.70;62.47;;;;;;;-4.64;100.00;101335.66;5094336;28;20106;-80
2022/01/28 01:10:23;;;;;;;295.20;123.65;;;;;;;-4.54;100.00;101329.94;5108762;28;20055;-82
2022/01/28 01:12:50;;;;;;;82.43;67.13;;;;;;;-5.03;100.00;101314.72;5097605;28;20056;-80
2022/01/28 01:15:20;;;;;;;961.92;367.85;;;;;;;-4.38;100.00;101310.75;5108488;28;20121;-81
2022/01/28 01:17:58;;;;;;;1170.38;483.10;;;;;;;-4.06;100.00;101310.47;5104684;28;20047;-80
2022/01/28 01:23:23;;;;;;;812.15;320.17;;;;;;;-3.92;100.00;101307.03;5095565;27;20036;-80
2022/01/28 01:25:54;;;;;;;564.83;209.88;;;;;;;-3.84;100.00;101301.31;5127339;27;20043;-80
2022/01/28 01:28:32;;;;;;;468.77;166.43;;;;;;;-3.48;100.00;101300.69;5123440;27;20082;-80
2022/01/28 01:31:02;;;;;;;562.67;204.63;;;;;;;-3.40;100.00;101287.22;5128625;27;20116;-80
2022/01/28 01:33:33;;;;;;;417.42;143.02;;;;;;;-4.09;100.00;101289.91;5121847;27;20116;-82
2022/01/28 01:36:00;;;;;;;121.35;69.95;;;;;;;-4.13;100.00;101272.91;5120119;27;20460;-79
2022/01/28 01:38:33;;;;;;;92.70;61.97;;;;;;;-4.22;100.00;101270.88;5125255;27;20044;-80
2022/01/28 01:41:03;;;;;;;98.18;63.25;;;;;;;-3.83;100.00;101256.28;5121305;27;20417;-82
2022/01/28 01:43:51;;;;;;;71.22;58.45;;;;;;;-4.22;100.00;101256.16;5130719;27;20050;-82
2022/01/28 01:46:25;;;;;;;61.17;54.22;;;;;;;-4.26;100.00;101251.25;5109388;27;20105;-80
2022/01/28 01:54:25;;;;;;;63.05;56.88;;;;;;;-4.42;100.00;101236.66;5129992;27;20061;-81
2022/01/28 01:56:51;;;;;;;563.65;245.88;;;;;;;-4.39;100.00;101230.44;5126753;27;20043;-80
2022/01/28 01:59:18;;;;;;;185.25;94.70;;;;;;;-4.46;100.00;101224.81;5134947;27;20047;-81
2022/01/28 02:01:45;;;;;;;68.05;60.83;;;;;;;-4.35;100.00;101221.56;5120316;27;20394;-80
2022/01/28 02:04:12;;;;;;;63.80;58.00;;;;;;;-4.32;100.00;101225.72;5118488;27;20401;-80
2022/01/28 02:06:40;;;;;;;61.28;55.65;;;;;;;-4.21;100.00;101224.06;5108443;27;20105;-80
2022/01/28 02:09:07;;;;;;;62.25;56.47;;;;;;;-4.24;100.00;101210.47;5115955;27;20168;-80
2022/01/28 02:11:42;;;;;;;64.18;58.55;;;;;;;-4.29;100.00;101215.97;5113069;28;20080;-81
2022/01/28 02:14:09;;;;;;;62.30;56.75;;;;;;;-4.21;100.00;101215.47;5121362;27;20108;-80
2022/01/28 02:16:36;;;;;;;56.75;52.00;;;;;;;-4.15;100.00;101212.47;5130350;27;20417;-82
2022/01/28 02:19:04;;;;;;;59.15;53.88;;;;;;;-4.32;100.00;101204.97;5124653;27;20487;-80
2022/01/28 02:21:39;;;;;;;60.47;55.38;;;;;;;-4.36;100.00;101204.31;5133319;28;20051;-80
2022/01/28 02:24:07;;;;;;;59.50;54.55;;;;;;;-4.32;100.00;101185.03;5127794;28;20091;-82
2022/01/28 02:26:36;;;;;;;73.00;65.35;;;;;;;-4.25;100.00;101191.50;5124614;27;20490;-79
2022/01/28 02:29:09;;;;;;;72.20;65.47;;;;;;;-4.08;100.00;101182.63;5136115;27;20491;-81
2022/01/28 02:31:36;;;;;;;59.08;54.08;;;;;;;-4.19;100.00;101179.88;5132877;28;20051;-80
2022/01/28 02:34:05;;;;;;;58.33;53.28;;;;;;;-4.03;100.00;101188.31;5131088;28;20059;-81
2022/01/28 02:36:32;;;;;;;55.58;51.08;;;;;;;-3.58;100.00;101186.22;5129432;28;20085;-81
2022/01/28 02:39:01;;;;;;;58.58;53.85;;;;;;;-3.63;100.00;101190.06;5127185;28;20047;-80
2022/01/28 02:41:33;;;;;;;61.10;55.45;;;;;;;-4.16;100.00;101185.72;5122377;28;20116;-80
2022/01/28 02:44:11;;;;;;;58.28;53.55;;;;;;;-3.60;100.00;101189.84;5124566;28;20084;-81
2022/01/28 02:46:42;;;;;;;57.70;52.80;;;;;;;-3.76;100.00;101179.66;5119611;27;20381;-81
2022/01/28 02:49:11;;;;;;;55.42;50.80;;;;;;;-3.96;100.00;101165.44;5122589;28;20061;-80
2022/01/28 02:51:37;;;;;;;57.97;53.22;;;;;;;-3.94;100.00;101174.75;5131090;28;20445;-81
2022/01/28 02:54:14;;;;;;;54.17;49.63;;;;;;;-3.85;100.00;101165.53;5119484;28;20117;-80
2022/01/28 02:56:48;;;;;;;51.13;47.35;;;;;;;-3.83;100.00;101175.81;5133348;28;20402;-80
2022/01/28 02:59:15;;;;;;;54.53;50.30;;;;;;;-2.70;100.00;101170.63;5134314;28;20110;-80
2022/01/28 03:01:42;;;;;;;343.40;116.13;;;;;;;-2.63;100.00;101173.59;5220403;22;20051;-81
2022/01/28 03:04:37;;;;;;;345.67;119.70;;;;;;;-2.81;100.00;101173.16;5086944;28;20036;-80
2022/01/28 03:07:03;;;;;;;495.70;188.27;;;;;;;-2.64;100.00;101162.38;5090371;28;20059;-79
2022/01/28 03:09:48;;;;;;;236.70;98.90;;;;;;;-3.02;100.00;101162.50;5092141;28;20039;-81
2022/01/28 03:12:20;;;;;;;80.20;57.47;;;;;;;-3.14;100.00;101164.19;5091647;28;20036;-81
2022/01/28 03:15:01;;;;;;;99.72;64.88;;;;;;;-3.19;100.00;101155.88;5087515;28;20052;-79
2022/01/28 03:17:51;;;;;;;64.85;54.92;;;;;;;-3.51;100.00;101151.13;5088130;28;20058;-80
2022/01/28 03:20:35;;;;;;;61.83;54.35;;;;;;;-3.57;100.00;101145.50;5094102;28;20072;-80
2022/01/28 03:23:01;;;;;;;57.20;52.13;;;;;;;-3.39;100.00;101153.81;5089554;28;20121;-80
2022/01/28 03:25:30;;;;;;;60.97;55.03;;;;;;;-3.42;100.00;101146.22;5093494;28;20052;-80
2022/01/28 03:27:59;;;;;;;59.53;53.97;;;;;;;-3.75;100.00;101151.03;5097846;28;20048;-80
2022/01/28 03:30:26;;;;;;;58.70;53.13;;;;;;;-2.74;100.00;101147.56;5087401;28;20044;-80
2022/01/28 03:32:53;;;;;;;60.33;54.83;;;;;;;-3.77;100.00;101139.91;5094065;28;20542;-80
2022/01/28 03:35:20;;;;;;;55.35;50.45;;;;;;;-3.55;100.00;101133.25;5099738;28;20059;-80
2022/01/28 03:37:47;;;;;;;51.55;46.83;;;;;;;-3.15;100.00;101135.69;5090166;28;20131;-80
2022/01/28 03:40:18;;;;;;;49.78;45.53;;;;;;;-2.99;100.00;101131.09;5081925;28;20439;-81
2022/01/28 03:42:46;;;;;;;53.13;48.45;;;;;;;-3.22;100.00;101128.31;5088363;28;20048;-79
2022/01/28 03:45:13;;;;;;;50.08;46.13;;;;;;;-3.43;100.00;101122.03;5090161;28;20044;-80
2022/01/28 03:47:39;;;;;;;55.13;50.35;;;;;;;-2.88;100.00;101133.75;5088053;28;20044;-79
2022/01/28 03:50:08;;;;;;;55.60;50.92;;;;;;;-3.35;100.00;101124.09;5100073;28;20118;-80
2022/01/28 03:52:35;;;;;;;100.95;71.10;;;;;;;-3.14;100.00;101125.22;5092136;28;20047;-80
2022/01/28 03:55:02;;;;;;;71.00;57.67;;;;;;;-2.74;100.00;101124.97;5090871;28;20044;-80
2022/01/28 03:57:29;;;;;;;60.42;54.35;;;;;;;-2.40;100.00;101131.16;5089979;28;20048;-80
2022/01/28 03:59:57;;;;;;;60.85;54.80;;;;;;;-2.28;100.00;101121.63;5088539;28;20477;-81
2022/01/28 04:02:30;;;;;;;55.63;50.83;;;;;;;-2.00;100.00;101117.81;5094370;28;20048;-80
2022/01/28 04:05:49;;;;;;;55.15;50.28;;;;;;;-2.60;100.00;101118.81;5088859;28;20068;-80
2022/01/28 04:13:28;;;;;;;53.33;49.00;;;;;;;-3.33;100.00;101110.06;5084003;28;20043;-81
2022/01/28 04:16:17;;;;;;;54.38;50.10;;;;;;;-3.47;100.00;101115.38;5092639;28;20048;-82
2022/01/28 04:18:43;;;;;;;55.88;51.55;;;;;;;-3.23;100.00;101108.50;5090555;28;20079;-80
2022/01/28 04:21:10;;;;;;;55.85;51.13;;;;;;;-3.28;100.00;101107.16;5088178;28;20055;-80
2022/01/28 04:23:37;;;;;;;54.92;50.42;;;;;;;-3.58;100.00;101103.13;5095508;28;20044;-79
2022/01/28 04:26:03;;;;;;;54.95;50.38;;;;;;;-3.30;100.00;101106.41;5088837;28;20476;-80
2022/01/28 04:28:30;;;;;;;56.22;51.65;;;;;;;-3.44;100.00;101099.59;5090437;28;20048;-79
2022/01/28 04:31:04;;;;;;;58.15;53.33;;;;;;;-3.46;100.00;101093.66;5081088;28;20110;-81
2022/01/28 04:33:33;;;;;;;54.65;49.58;;;;;;;-2.75;100.00;101105.13;5083415;28;20048;-80
2022/01/28 04:36:00;;;;;;;61.75;55.10;;;;;;;-3.10;100.00;101097.22;5082180;28;20432;-79
2022/01/28 04:38:33;;;;;;;67.05;58.78;;;;;;;-2.82;100.00;101086.53;5084743;28;20052;-80
2022/01/28 04:41:08;;;;;;;62.38;55.58;;;;;;;-2.54;100.00;101089.75;5088123;28;20052;-80
2022/01/28 04:43:40;;;;;;;59.53;53.28;;;;;;;-2.83;100.00;101089.25;5095351;28;20107;-80
2022/01/28 04:46:09;;;;;;;60.80;55.33;;;;;;;-2.22;100.00;101081.31;5081404;28;20064;-80
2022/01/28 04:48:42;;;;;;;70.25;56.47;;;;;;;-2.61;100.00;101094.53;5094377;28;20135;-80
2022/01/28 04:51:18;;;;;;;83.68;58.92;;;;;;;-2.73;100.00;101085.03;5085904;28;20055;-80
2022/01/28 04:56:41;;;;;;;73.25;56.45;;;;;;;-3.12;100.00;101088.69;5084442;28;20416;-79
2022/01/28 04:59:34;;;;;;;82.07;60.38;;;;;;;-2.92;100.00;101092.50;5085426;28;20555;-81
2022/01/28 05:05:17;;;;;;;57.35;51.97;;;;;;;-2.83;100.00;101087.47;5071848;28;20792;-80
2022/01/28 05:08:05;;;;;;;51.97;47.75;;;;;;;-2.35;100.00;101089.22;5092661;28;20060;-82
2022/01/28 05:10:55;;;;;;;62.28;55.42;;;;;;;-2.09;100.00;101084.66;5087607;28;20161;-80
2022/01/28 05:27:18;;;;;;;60.30;54.17;;;;;;;-2.53;100.00;101102.63;5063638;28;20138;-82
2022/01/28 05:29:46;;;;;;;59.55;53.78;;;;;;;-2.75;100.00;101084.31;5071454;28;20063;-80
2022/01/28 05:32:14;;;;;;;60.38;54.33;;;;;;;-2.61;100.00;101094.53;5076650;28;20071;-81
2022/01/28 05:34:42;;;;;;;58.15;52.75;;;;;;;-2.58;100.00;101096.09;5067881;28;20045;-81
2022/01/28 05:37:10;;;;;;;59.28;53.75;;;;;;;-2.47;100.00;101092.72;5072657;28;20049;-81
2022/01/28 05:39:38;;;;;;;56.47;51.15;;;;;;;-2.47;100.00;101100.53;5073595;28;20052;-81
2022/01/28 05:42:05;;;;;;;53.20;48.38;;;;;;;-2.01;100.00;101102.31;5074600;28;20369;-81
2022/01/28 05:44:32;;;;;;;46.88;43.22;;;;;;;-1.49;100.00;101114.81;5074436;28;20118;-81
2022/01/28 05:47:03;;;;;;;46.80;43.22;;;;;;;-1.01;100.00;101101.50;5075990;28;20435;-80
2022/01/28 05:49:39;;;;;;;44.15;40.95;;;;;;;-0.47;100.00;101097.22;5075656;28;20079;-82
2022/01/28 05:52:07;;;;;;;44.42;41.25;;;;;;;-0.47;100.00;101097.22;5069347;28;20114;-81
2022/01/28 05:54:35;;;;;;;63.15;58.55;;;;;;;-0.45;100.00;101103.16;5070924;28;20531;-81
2022/01/28 05:57:04;;;;;;;67.47;62.78;;;;;;;0.13;100.00;101102.72;5069793;28;20390;-81
2022/01/28 05:59:31;;;;;;;71.75;66.38;;;;;;;-0.41;100.00;101109.75;5073011;28;20402;-81
2022/01/28 06:01:58;;;;;;;74.45;68.65;;;;;;;-0.50;100.00;101111.34;5071987;28;20132;-81
2022/01/28 06:04:25;;;;;;;80.72;74.07;;;;;;;-0.74;100.00;101110.69;5074422;28;20484;-80
2022/01/28 06:06:52;;;;;;;79.95;73.35;;;;;;;-0.68;100.00;101107.59;5074682;28;20053;-80
2022/01/28 06:09:19;;;;;;;73.57;67.57;;;;;;;-0.68;100.00;101112.00;5057235;28;20057;-80
2022/01/28 06:11:48;;;;;;;73.85;67.55;;;;;;;-0.52;100.00;101108.00;5072176;28;20102;-79
2022/01/28 06:14:14;;;;;;;71.55;65.85;;;;;;;-0.71;100.00;101102.63;5068682;28;20049;-81
2022/01/28 06:16:42;;;;;;;97.97;82.13;;;;;;;-0.61;100.00;101113.16;5063122;28;20049;-79
2022/01/28 06:19:08;;;;;;;117.15;87.22;;;;;;;-0.59;100.00;101113.88;5067042;28;20037;-81
2022/01/28 06:21:35;;;;;;;111.90;88.60;;;;;;;-0.43;100.00;101108.22;5063295;28;20049;-79
2022/01/28 06:24:02;;;;;;;156.98;99.43;;;;;;;-0.43;100.00;101105.63;5057640;28;20469;-81
2022/01/28 06:26:29;;;;;;;81.43;73.47;;;;;;;0.26;100.00;101110.34;5063798;28;20048;-81
2022/01/28 06:28:57;;;;;;;110.90;86.30;;;;;;;0.14;100.00;101114.81;5057491;28;20087;-82
2022/01/28 06:31:24;;;;;;;78.68;71.50;;;;;;;0.52;100.00;101105.53;5019942;28;20049;-81
2022/01/28 06:33:50;;;;;;;75.28;68.40;;;;;;;0.68;100.00;101109.31;5045196;28;20127;-80
2022/01/28 06:36:20;;;;;;;77.47;70.72;;;;;;;0.84;100.00;101116.66;5036037;28;20452;-81
2022/01/28 06:38:46;;;;;;;72.40;66.90;;;;;;;1.01;100.00;101107.34;5039497;28;20462;-81
2022/01/28 06:41:13;;;;;;;78.75;72.10;;;;;;;0.95;100.00;101107.88;5038101;28;20047;-79
2022/01/28 06:43:40;;;;;;;85.68;77.88;;;;;;;0.75;100.00;101104.38;5037504;28;20146;-81
2022/01/28 06:46:08;;;;;;;78.10;71.20;;;;;;;1.14;100.00;101112.31;5038720;28;20050;-79
2022/01/28 06:48:41;;;;;;;77.43;70.22;;;;;;;2.63;100.00;101102.25;5031017;28;20370;-83
2022/01/28 06:51:08;;;;;;;79.43;72.07;;;;;;;1.31;100.00;101103.81;5031830;28;20114;-79
2022/01/28 06:53:35;;;;;;;76.22;69.93;;;;;;;0.91;100.00;101101.28;5032966;28;20073;-81
2022/01/28 20:27:49;;;;;;;48.50;45.03;;;;;;;1.63;100.00;101466.72;5124120;27;20900;-82
2022/01/28 20:30:17;;;;;;;50.85;47.13;;;;;;;1.80;100.00;101475.78;5082656;28;20077;-82
2022/01/28 20:32:44;;;;;;;49.75;45.95;;;;;;;1.74;100.00;101477.13;5084555;28;20052;-82
2022/01/28 20:35:11;;;;;;;51.63;47.35;;;;;;;1.54;100.00;101480.56;5076604;28;20488;-80
2022/01/28 20:37:38;;;;;;;50.70;46.75;;;;;;;1.45;100.00;101479.56;5083552;28;20095;-82
2022/01/28 20:40:07;;;;;;;52.35;48.45;;;;;;;1.43;100.00;101475.44;5081285;28;20056;-80
2022/01/28 20:42:33;;;;;;;51.08;47.47;;;;;;;1.51;100.00;101473.84;5087328;28;20104;-82
2022/01/28 20:45:03;;;;;;;50.90;47.33;;;;;;;1.44;100.00;101466.59;5085148;28;20062;-79
2022/01/28 20:47:29;;;;;;;52.97;48.88;;;;;;;1.35;100.00;101471.66;5087578;28;20041;-80
2022/01/28 20:49:56;;;;;;;50.72;46.90;;;;;;;1.77;100.00;101470.78;5082648;28;20110;-83
2022/01/28 20:52:23;;;;;;;52.08;48.28;;;;;;;1.59;100.00;101473.19;5086367;28;20048;-80
2022/01/28 20:54:50;;;;;;;49.85;46.72;;;;;;;1.95;100.00;101473.66;5085073;28;20044;-81
2022/01/28 20:57:16;;;;;;;47.58;44.67;;;;;;;1.90;100.00;101473.19;5081522;28;20121;-78
2022/01/28 20:59:43;;;;;;;52.17;48.47;;;;;;;1.71;100.00;101477.38;5047965;28;20470;-80
2022/01/28 21:02:11;;;;;;;47.95;44.83;;;;;;;1.88;100.00;101477.75;5059041;28;20466;-79
2022/01/28 21:04:38;;;;;;;52.08;48.30;;;;;;;1.33;100.00;101472.72;5026374;28;20084;-78
2022/01/28 21:07:05;;;;;;;51.63;47.88;;;;;;;1.29;100.00;101477.38;5033881;28;20485;-78
2022/01/28 21:09:32;;;;;;;49.45;46.00;;;;;;;1.28;100.00;101469.69;5017959;28;20049;-80
2022/01/28 21:11:59;;;;;;;50.13;46.42;;;;;;;1.36;100.00;101465.47;5022743;28;20057;-80
2022/01/28 21:14:25;;;;;;;48.97;45.63;;;;;;;1.29;100.00;101464.31;5014562;28;20061;-80
2022/01/28 21:16:52;;;;;;;50.08;46.22;;;;;;;1.44;100.00;101477.06;5026489;28;20111;-79
2022/01/28 21:19:20;;;;;;;49.97;46.33;;;;;;;1.43;100.00;101483.28;5022339;28;20058;-81
2022/01/28 21:21:47;;;;;;;51.33;47.30;;;;;;;1.45;100.00;101492.66;5023664;28;20119;-79
2022/01/28 21:24:14;;;;;;;49.45;45.70;;;;;;;1.52;100.00;101487.75;5021703;28;20050;-80
2022/01/28 21:26:40;;;;;;;48.55;44.80;;;;;;;1.52;100.00;101487.75;5025732;28;20080;-81
2022/01/28 21:29:07;;;;;;;50.95;47.10;;;;;;;1.31;100.00;101490.38;5022524;28;20513;-79
2022/01/28 21:31:34;;;;;;;46.40;43.50;;;;;;;1.88;100.00;101496.94;5022635;28;20054;-76
2022/01/28 21:34:02;;;;;;;48.63;45.53;;;;;;;1.81;100.00;101504.44;5017875;28;20068;-81
2022/01/28 21:36:32;;;;;;;51.10;47.55;;;;;;;1.53;100.00;101507.72;5017346;28;20064;-78
2022/01/28 21:38:59;;;;;;;53.40;49.47;;;;;;;1.32;100.00;101498.06;5011700;28;20141;-80
2022/01/28 21:41:25;;;;;;;51.40;47.67;;;;;;;1.58;100.00;101487.25;5002846;28;20128;-81
2022/01/28 21:43:52;;;;;;;49.50;45.92;;;;;;;2.02;100.00;101490.50;5005250;28;20120;-77
2022/01/28 21:46:20;;;;;;;51.63;48.08;;;;;;;1.66;100.00;101495.25;5012882;28;20061;-80
2022/01/28 21:48:47;;;;;;;52.70;48.80;;;;;;;1.64;100.00;101499.00;5008796;28;20483;-79
2022/01/28 21:51:14;;;;;;;51.78;48.22;;;;;;;1.51;100.00;101496.53;5008780;28;20061;-81
2022/01/28 21:53:42;;;;;;;52.72;48.95;;;;;;;1.35;100.00;101495.19;4996668;28;20480;-81
2022/01/28 21:56:09;;;;;;;50.85;47.25;;;;;;;2.17;100.00;101497.03;5013693;28;20052;-78
2022/01/28 21:58:36;;;;;;;50.30;46.75;;;;;;;1.55;100.00;101493.56;5006199;28;20046;-78
2022/01/28 22:01:03;;;;;;;49.90;46.38;;;;;;;1.43;100.00;101491.97;5010970;28;20053;-78
2022/01/28 22:03:29;;;;;;;50.75;46.97;;;;;;;1.43;100.00;101489.34;5011070;28;20463;-80
2022/01/28 22:05:58;;;;;;;52.63;48.67;;;;;;;1.50;100.00;101487.03;5012075;28;20047;-78
2022/01/28 22:08:25;;;;;;;52.08;48.30;;;;;;;1.35;100.00;101489.13;5006130;28;20455;-79
2022/01/28 22:10:54;;;;;;;50.33;46.65;;;;;;;1.47;100.00;101489.91;4999804;28;20051;-81
2022/01/28 22:13:22;;;;;;;49.92;46.83;;;;;;;1.80;100.00;101496.72;5004888;28;20430;-78
2022/01/28 22:15:50;;;;;;;51.35;47.65;;;;;;;1.46;100.00;101489.09;5017509;28;20135;-82
2022/01/28 22:18:19;;;;;;;52.47;48.58;;;;;;;1.44;100.00;101492.78;5012353;28;20045;-76
2022/01/28 22:20:46;;;;;;;52.70;48.60;;;;;;;1.34;100.00;101483.09;5012597;28;20533;-81
2022/01/28 22:23:14;;;;;;;52.00;48.08;;;;;;;1.36;100.00;101502.13;5002189;28;20042;-79
2022/01/28 22:25:40;;;;;;;50.67;47.00;;;;;;;1.30;100.00;101500.00;5003435;28;20058;-78
2022/01/28 22:28:08;;;;;;;50.50;46.97;;;;;;;1.54;100.00;101496.28;5002302;28;20105;-80
2022/01/28 22:30:35;;;;;;;52.95;48.88;;;;;;;1.16;100.00;101502.09;5006568;28;20054;-81
2022/01/28 22:33:02;;;;;;;51.38;47.67;;;;;;;1.42;100.00;101508.59;5013437;28;20445;-78
2022/01/28 22:35:29;;;;;;;50.33;46.45;;;;;;;1.31;100.00;101499.03;5004923;28;20108;-78
2022/01/28 22:37:56;;;;;;;51.58;47.78;;;;;;;1.21;100.00;101502.53;5013757;28;20046;-81
2022/01/28 22:40:24;;;;;;;52.83;49.05;;;;;;;1.05;100.00;101498.53;5008977;28;20547;-78
2022/01/28 22:42:52;;;;;;;52.70;48.60;;;;;;;1.16;100.00;101507.31;5008259;28;20113;-81
2022/01/28 22:45:21;;;;;;;51.90;47.92;;;;;;;1.08;100.00;101497.47;5013424;28;20061;-81
2022/01/28 22:47:48;;;;;;;49.58;46.30;;;;;;;1.35;100.00;101499.63;5013064;28;20051;-81
2022/01/28 22:50:15;;;;;;;48.28;45.13;;;;;;;1.37;100.00;101492.47;5004886;28;20038;-78
2022/01/28 22:52:44;;;;;;;49.50;46.22;;;;;;;1.81;100.00;101495.75;5004320;28;20046;-82
2022/01/28 22:55:12;;;;;;;51.88;48.17;;;;;;;1.32;100.00;101503.31;5012122;28;20054;-82
2022/01/28 22:57:39;;;;;;;48.97;45.42;;;;;;;1.31;100.00;101492.97;5009591;28;20514;-79
2022/01/28 23:00:09;;;;;;;48.72;45.63;;;;;;;1.80;100.00;101496.72;5006250;28;20112;-78
2022/01/28 23:02:37;;;;;;;52.03;48.20;;;;;;;1.35;100.00;101489.97;5004441;28;20065;-79
2022/01/28 23:05:04;;;;;;;50.20;46.70;;;;;;;1.34;100.00;101490.09;5014251;28;20046;-80
2022/01/28 23:07:31;;;;;;;49.70;46.20;;;;;;;1.55;100.00;101498.78;5007103;28;20073;-81
2022/01/28 23:09:58;;;;;;;46.05;43.13;;;;;;;1.81;100.00;101493.97;5010798;28;20454;-78
2022/01/28 23:12:27;;;;;;;48.40;45.40;;;;;;;1.44;100.00;101491.00;5004609;28;20050;-79
2022/01/28 23:14:54;;;;;;;48.15;44.97;;;;;;;1.76;100.00;101492.72;5010127;28;20127;-80
2022/01/28 23:17:20;;;;;;;50.78;47.13;;;;;;;1.62;100.00;101493.88;5014935;28;20046;-79
2022/01/28 23:19:49;;;;;;;50.47;47.15;;;;;;;1.43;100.00;101489.34;5007548;28;20501;-79
2022/01/28 23:22:15;;;;;;;50.17;46.40;;;;;;;1.62;100.00;101490.44;5003500;28;20120;-81
2022/01/28 23:24:42;;;;;;;46.63;43.78;;;;;;;1.36;100.00;101486.41;5008925;28;20398;-79
2022/01/28 23:27:09;;;;;;;48.67;45.50;;;;;;;1.28;100.00;101469.69;5007051;28;20495;-78
2022/01/28 23:29:36;;;;;;;49.70;46.47;;;;;;;1.38;100.00;101467.94;5006216;28;20058;-79
2022/01/28 23:32:03;;;;;;;50.15;46.85;;;;;;;1.34;100.00;101467.38;5007251;28;20104;-79
2022/01/28 23:34:30;;;;;;;50.30;46.70;;;;;;;1.26;100.00;101469.78;5005566;28;20053;-80
2022/01/28 23:36:58;;;;;;;51.53;47.35;;;;;;;1.70;100.00;101477.53;5008027;28;20107;-77
2022/01/28 23:39:27;;;;;;;50.10;46.60;;;;;;;1.63;100.00;101473.75;5007322;28;20107;-79
2022/01/28 23:41:54;;;;;;;51.63;47.83;;;;;;;1.45;100.00;101470.88;5011987;28;20192;-79
2022/01/28 23:44:21;;;;;;;47.40;44.38;;;;;;;1.31;100.00;101470.25;5005802;28;20109;-82
2022/01/28 23:46:48;;;;;;;52.35;48.70;;;;;;;1.35;100.00;101473.44;4999534;28;20384;-80
2022/01/28 23:49:15;;;;;;;52.67;49.08;;;;;;;1.33;100.00;101468.34;5007433;28;20107;-80
2022/01/28 23:51:42;;;;;;;51.55;48.20;;;;;;;1.63;100.00;101468.50;5003594;28;20120;-79
2022/01/28 23:54:10;;;;;;;54.05;50.13;;;;;;;1.23;100.00;101472.66;5001807;28;20069;-79
2022/01/28 23:56:38;;;;;;;52.63;49.08;;;;;;;1.48;100.00;101478.47;5004293;28;20053;-79
2022/01/28 23:59:05;;;;;;;48.25;44.78;;;;;;;1.15;100.00;101482.94;5009391;28;20074;-79
